Terminal Aerodrome Forecast
Issued by NWS

Home | Current Version | Previous Version | Text Only | Print | Product List | Glossary Off
Versions: 1 2 3 4 5 6 7 8 9 10 11 12 13 14 15 16 17 18

000
FTUS43 KMPX 191746
TAFRNH
TAF
KRNH 191746Z 1918/2018 03015KT 5SM -SN SCT015 OVC025
      TEMPO 1918/1921 1SM -SN OVC010
     FM192100 03013KT 2SM -SN OVC016
     FM200000 04012KT 2SM -SN OVC015
     FM200600 04009KT P6SM VCSH OVC015
     FM200800 03006KT 2SM -PLSN OVC010
     FM201500 04005KT 6SM BR OVC015 PROB30 2015/2018 2SM -SN BR=

USA.gov is the U.S. government's official web portal to all federal, state and local government web resources and services.